createdAt,value
2019-02-18T00:00:06.289Z,25.93
2019-02-18T00:03:10.848Z,26.37
2019-02-18T00:06:13.422Z,27.03
2019-02-18T00:09:16.760Z,26.93
2019-02-18T00:12:19.629Z,25.67
2019-02-18T00:15:22.366Z,27.67
2019-02-18T00:18:26.176Z,27.73
2019-02-18T00:21:28.844Z,30.47
2019-02-18T00:24:33.321Z,27.33
2019-02-18T00:27:36.009Z,28.43
2019-02-18T00:30:38.729Z,27.17
2019-02-18T00:33:41.421Z,26.00
2019-02-18T00:36:47.013Z,27.37
2019-02-18T00:39:49.718Z,25.27
2019-02-18T00:42:55.505Z,25.40
2019-02-18T00:45:59.378Z,24.33
2019-02-18T00:49:02.221Z,22.37
2019-02-18T00:52:05.032Z,23.17
2019-02-18T00:55:08.057Z,21.73
2019-02-18T00:58:13.835Z,21.47
2019-02-18T01:01:17.575Z,19.30
2019-02-18T01:04:23.748Z,17.70
2019-02-18T01:07:34.430Z,18.23
2019-02-18T01:10:33.797Z,17.70
2019-02-18T01:13:36.648Z,16.70
2019-02-18T01:16:39.485Z,16.93
2019-02-18T01:19:42.285Z,15.97
2019-02-18T01:22:45.131Z,13.90
2019-02-18T01:25:50.447Z,12.80
2019-02-18T01:28:53.124Z,13.60
2019-02-18T01:31:56.002Z,11.70
2019-02-18T01:34:58.814Z,12.60
2019-02-18T01:38:01.457Z,11.93
2019-02-18T01:41:04.153Z,12.20
2019-02-18T01:44:08.630Z,11.63
2019-02-18T01:47:11.540Z,11.30
2019-02-18T01:50:14.385Z,12.27
2019-02-18T01:53:17.150Z,11.07
2019-02-18T01:56:19.898Z,13.43
2019-02-18T01:59:22.678Z,13.77
2019-02-18T02:02:25.507Z,16.30
2019-02-18T02:05:33.266Z,15.07
2019-02-18T02:08:36.061Z,16.10
2019-02-18T02:11:38.813Z,18.13
2019-02-18T02:14:42.302Z,16.67
2019-02-18T02:17:46.180Z,18.10
2019-02-18T02:20:49.082Z,17.23
2019-02-18T02:23:51.906Z,18.93
2019-02-18T02:26:54.592Z,18.00
2019-02-18T02:30:07.113Z,19.23
2019-02-18T02:33:09.865Z,20.00
2019-02-18T02:36:13.553Z,20.17
2019-02-18T02:39:17.380Z,19.10
2019-02-18T02:42:20.217Z,20.97
2019-02-18T02:45:22.920Z,22.20
2019-02-18T02:48:25.696Z,22.90
2019-02-18T02:51:28.382Z,19.03
2019-02-18T02:54:31.235Z,22.67
2019-02-18T02:57:34.027Z,23.67
2019-02-18T03:00:37.183Z,23.87
2019-02-18T03:03:39.963Z,23.50
2019-02-18T03:06:42.686Z,24.67
2019-02-18T03:09:45.729Z,23.47
2019-02-18T03:12:51.325Z,24.80
2019-02-18T03:15:56.174Z,26.30
2019-02-18T03:18:58.940Z,23.87
2019-02-18T03:22:01.733Z,25.67
2019-02-18T03:25:23.239Z,26.83
2019-02-18T03:28:59.007Z,25.00
2019-02-18T03:32:01.815Z,25.57
2019-02-18T03:35:11.958Z,25.53
2019-02-18T03:38:14.685Z,26.77
2019-02-18T03:41:17.347Z,28.37
2019-02-18T03:44:20.130Z,26.30
2019-02-18T03:47:23.069Z,25.10
2019-02-18T03:50:25.733Z,27.43
2019-02-18T03:53:28.510Z,25.60
2019-02-18T03:56:31.233Z,27.77
2019-02-18T03:59:34.038Z,26.47
2019-02-18T04:02:37.025Z,28.80
2019-02-18T04:05:39.731Z,27.07
2019-02-18T04:08:43.398Z,28.00
2019-02-18T04:11:46.388Z,29.07
2019-02-18T04:14:49.057Z,26.97
2019-02-18T04:17:51.936Z,28.40
2019-02-18T04:20:55.765Z,26.97
2019-02-18T04:23:58.906Z,28.67
2019-02-18T04:27:01.617Z,28.83
2019-02-18T04:30:04.491Z,29.57
2019-02-18T04:33:07.312Z,29.07
2019-02-18T04:36:10.107Z,29.07
2019-02-18T04:39:12.817Z,28.90
2019-02-18T04:42:15.597Z,27.13
2019-02-18T04:45:18.366Z,30.10
2019-02-18T04:48:21.076Z,30.77
2019-02-18T04:51:23.842Z,30.30
2019-02-18T04:54:26.693Z,29.97
2019-02-18T04:57:31.377Z,30.27
2019-02-18T05:00:34.022Z,30.67
2019-02-18T05:03:36.840Z,31.00
2019-02-18T05:06:39.666Z,27.33
2019-02-18T05:09:42.550Z,30.47
2019-02-18T05:12:45.345Z,29.73
2019-02-18T05:15:48.185Z,30.57
2019-02-18T05:18:50.963Z,29.63
2019-02-18T05:21:53.699Z,29.57
2019-02-18T05:24:56.495Z,31.53
2019-02-18T05:27:59.424Z,28.10
2019-02-18T05:31:02.125Z,31.27
2019-02-18T05:34:04.915Z,33.80
2019-02-18T05:37:07.723Z,35.73
2019-02-18T05:40:11.464Z,30.83
2019-02-18T05:43:14.434Z,32.00
2019-02-18T05:46:17.387Z,31.93
2019-02-18T05:49:20.250Z,31.50
2019-02-18T05:52:22.987Z,35.03
2019-02-18T05:55:25.804Z,32.47
2019-02-18T05:58:28.568Z,32.67
2019-02-18T06:01:31.394Z,33.43
2019-02-18T06:04:34.123Z,35.57
2019-02-18T06:07:37.341Z,36.87
2019-02-18T06:10:41.314Z,37.03
2019-02-18T06:13:44.033Z,39.20
2019-02-18T06:16:48.021Z,37.23
2019-02-18T06:19:50.857Z,38.80
2019-02-18T06:22:53.718Z,40.13
2019-02-18T06:25:56.611Z,37.40
2019-02-18T06:28:59.386Z,39.17
2019-02-18T06:32:02.247Z,35.63
2019-02-18T06:35:05.092Z,39.07
2019-02-18T06:38:07.828Z,37.10
2019-02-18T06:41:10.639Z,36.00
2019-02-18T06:44:13.394Z,34.83
2019-02-18T06:47:21.201Z,39.60
2019-02-18T06:50:24.164Z,30.67
2019-02-18T06:53:26.985Z,37.73
2019-02-18T06:57:01.206Z,38.83
2019-02-18T07:00:36.550Z,36.90
2019-02-18T07:04:01.610Z,36.73
2019-02-18T07:07:20.294Z,37.73
2019-02-18T07:10:52.568Z,37.93
2019-02-18T07:13:55.714Z,34.30
2019-02-18T07:16:58.499Z,37.60
2019-02-18T07:20:01.365Z,38.73
2019-02-18T07:23:04.139Z,38.90
2019-02-18T07:26:07.059Z,40.53
2019-02-18T07:29:09.970Z,39.87
2019-02-18T07:32:12.671Z,37.77
2019-02-18T07:35:15.426Z,39.77
2019-02-18T07:38:18.524Z,38.57
2019-02-18T07:41:21.229Z,40.57
2019-02-18T07:44:23.983Z,38.37
2019-02-18T07:47:26.682Z,37.90
2019-02-18T07:50:29.550Z,37.17
2019-02-18T07:53:32.290Z,41.03
2019-02-18T07:56:35.023Z,42.13
2019-02-18T07:59:37.855Z,42.93
2019-02-18T08:02:40.634Z,45.90
2019-02-18T08:05:43.598Z,42.50
2019-02-18T08:08:46.391Z,45.93
2019-02-18T08:11:49.120Z,42.40
2019-02-18T08:14:51.908Z,45.43
2019-02-18T08:17:54.658Z,41.83
2019-02-18T08:20:57.555Z,48.23
2019-02-18T08:24:00.516Z,49.10
2019-02-18T08:27:03.376Z,49.33
2019-02-18T08:30:07.447Z,50.47
2019-02-18T08:33:10.224Z,34.53
2019-02-18T08:36:13.081Z,49.47
2019-02-18T08:39:15.829Z,49.90
2019-02-18T08:42:20.627Z,49.10
2019-02-18T08:45:23.442Z,47.17
2019-02-18T08:48:26.242Z,48.17
2019-02-18T08:51:29.112Z,48.07
2019-02-18T08:54:32.990Z,48.53
2019-02-18T08:57:35.858Z,42.47
2019-02-18T09:00:38.709Z,48.50
2019-02-18T09:03:41.650Z,48.53
2019-02-18T09:06:44.425Z,48.83
2019-02-18T09:09:47.185Z,45.80
2019-02-18T09:12:49.927Z,45.53
2019-02-18T09:15:59.768Z,45.87
2019-02-18T09:18:57.323Z,44.73
2019-02-18T09:22:18.141Z,46.17
2019-02-18T09:25:23.742Z,45.23
2019-02-18T09:28:26.551Z,45.43
2019-02-18T09:31:31.637Z,42.37
2019-02-18T09:34:34.319Z,42.13
2019-02-18T09:37:37.251Z,44.13
2019-02-18T09:40:45.101Z,42.17
2019-02-18T09:43:44.793Z,41.80
2019-02-18T09:46:47.670Z,41.73
2019-02-18T09:49:50.399Z,43.70
2019-02-18T09:52:53.182Z,40.33
2019-02-18T09:55:56.162Z,41.97
2019-02-18T09:58:59.037Z,41.87
2019-02-18T10:02:01.832Z,41.20
2019-02-18T10:05:04.675Z,39.50
2019-02-18T10:08:07.467Z,39.90
2019-02-18T10:11:10.379Z,40.60
2019-02-18T10:14:13.226Z,39.90
2019-02-18T10:17:16.010Z,37.57
2019-02-18T10:20:19.803Z,34.23
2019-02-18T10:23:22.585Z,39.30
2019-02-18T10:26:25.429Z,38.07
2019-02-18T10:29:28.760Z,38.10
2019-02-18T10:32:31.721Z,38.47
2019-02-18T10:35:34.395Z,36.77
2019-02-18T10:38:37.305Z,32.70
2019-02-18T10:41:40.289Z,32.37
2019-02-18T10:44:43.212Z,35.27
2019-02-18T10:47:45.962Z,37.83
2019-02-18T10:50:50.449Z,37.77
2019-02-18T10:53:53.321Z,38.87
2019-02-18T10:56:56.154Z,37.37
2019-02-18T10:59:59.389Z,36.20
2019-02-18T11:03:02.437Z,39.20
2019-02-18T11:06:06.279Z,38.80
2019-02-18T11:09:10.959Z,36.97
2019-02-18T11:12:13.871Z,37.30
2019-02-18T11:15:16.723Z,33.80
2019-02-18T11:18:19.996Z,36.27
2019-02-18T11:21:22.745Z,39.17
2019-02-18T11:24:25.563Z,37.10
2019-02-18T11:27:28.943Z,35.20
2019-02-18T11:30:31.737Z,31.97
2019-02-18T11:33:34.526Z,35.40
2019-02-18T11:36:37.868Z,36.90
2019-02-18T11:39:41.750Z,37.40
2019-02-18T11:42:44.672Z,35.23
2019-02-18T11:45:47.505Z,37.13
2019-02-18T11:48:50.355Z,33.00
2019-02-18T11:51:53.207Z,36.57
2019-02-18T11:54:56.147Z,35.83
2019-02-18T16:11:05.502Z,39.67
2019-02-18T16:18:03.284Z,36.43
2019-02-18T16:21:12.243Z,37.80
2019-02-18T16:24:19.931Z,40.53
2019-02-18T16:27:20.606Z,39.63
2019-02-18T16:30:23.651Z,40.97
2019-02-18T16:33:26.603Z,38.90
2019-02-18T16:36:29.401Z,39.83
2019-02-18T16:39:32.438Z,37.97
2019-02-18T16:42:35.471Z,38.37
2019-02-18T16:45:39.558Z,34.60
2019-02-18T16:48:43.693Z,36.37
2019-02-18T16:51:46.741Z,34.53
2019-02-18T16:54:49.574Z,36.07
2019-02-18T16:57:52.413Z,34.87
2019-02-18T17:00:57.692Z,34.70
2019-02-18T17:04:00.132Z,35.53
2019-02-18T17:07:02.932Z,32.23
2019-02-18T17:10:05.931Z,34.43
2019-02-18T17:13:08.753Z,31.97
2019-02-18T17:16:11.625Z,34.23
2019-02-18T17:19:14.484Z,33.90
2019-02-18T17:22:17.155Z,31.37
2019-02-18T17:25:20.105Z,33.40
2019-02-18T17:28:23.505Z,32.00
2019-02-18T17:31:26.314Z,30.20
2019-02-18T17:34:29.076Z,30.83
2019-02-18T17:37:32.338Z,30.27
2019-02-18T17:40:35.083Z,29.73
2019-02-18T17:43:38.202Z,30.47
2019-02-18T17:46:44.249Z,27.70
2019-02-18T17:49:47.037Z,27.90
2019-02-18T17:52:49.980Z,30.33
2019-02-18T17:55:52.802Z,26.80
2019-02-18T17:58:55.712Z,27.07
2019-02-18T18:01:58.526Z,26.27
2019-02-18T18:05:01.484Z,26.93
2019-02-18T18:08:04.420Z,27.43
2019-02-18T18:11:07.206Z,27.07
2019-02-18T18:14:09.997Z,26.03
2019-02-18T18:17:12.825Z,26.80
2019-02-18T18:20:15.732Z,24.87
2019-02-18T18:23:18.541Z,23.77
2019-02-18T18:26:21.327Z,24.30
2019-02-18T18:29:24.126Z,19.73
2019-02-18T18:32:27.029Z,21.23
2019-02-18T18:35:29.809Z,21.53
2019-02-18T18:38:35.630Z,19.60
2019-02-18T18:41:39.206Z,19.73
2019-02-18T18:44:41.978Z,17.93
2019-02-18T18:47:44.836Z,18.43
2019-02-18T18:50:47.829Z,17.67
2019-02-18T18:53:50.578Z,18.67
2019-02-18T18:56:53.483Z,17.43
2019-02-18T18:59:56.536Z,18.30
2019-02-18T19:02:59.361Z,17.67
2019-02-18T19:06:02.259Z,18.97
2019-02-18T19:09:05.412Z,17.20
2019-02-18T19:12:08.361Z,19.10
2019-02-18T19:15:11.653Z,18.83
2019-02-18T19:18:14.573Z,20.13
2019-02-18T19:21:17.357Z,20.80
2019-02-18T19:24:20.218Z,21.60
2019-02-18T19:27:23.142Z,23.30
2019-02-18T19:30:27.351Z,22.30
2019-02-18T19:33:30.351Z,22.67
2019-02-18T19:36:33.267Z,20.27
2019-02-18T19:39:36.188Z,25.67
2019-02-18T19:42:39.227Z,22.60
2019-02-18T19:45:42.111Z,24.27
2019-02-18T19:48:44.874Z,23.33
2019-02-18T19:51:47.846Z,21.20
2019-02-18T19:54:50.748Z,24.97
2019-02-18T19:57:53.724Z,23.93
2019-02-18T20:00:56.817Z,22.17
2019-02-18T20:03:59.825Z,25.07
2019-02-18T20:07:02.729Z,26.10
2019-02-18T20:10:06.028Z,26.73
2019-02-18T20:13:10.010Z,25.83
2019-02-18T20:16:12.930Z,24.30
2019-02-18T20:19:15.765Z,25.50
2019-02-18T20:22:18.628Z,26.57
2019-02-18T20:25:21.437Z,28.43
2019-02-18T20:28:24.266Z,27.77
2019-02-18T20:31:28.098Z,30.20
2019-02-18T20:34:30.987Z,30.13
2019-02-18T20:37:34.146Z,32.90
2019-02-18T20:40:37.164Z,35.10
2019-02-18T20:43:40.070Z,34.37
2019-02-18T20:46:43.022Z,34.37
2019-02-18T20:49:46.045Z,32.70
2019-02-18T20:52:48.983Z,34.43
2019-02-18T20:55:51.832Z,36.07
2019-02-18T20:58:54.819Z,38.50
2019-02-18T21:01:57.493Z,34.90
2019-02-18T21:05:00.818Z,39.53
2019-02-18T21:08:03.727Z,39.17
2019-02-18T21:11:06.417Z,39.07
2019-02-18T21:14:15.932Z,39.27
2019-02-18T21:17:14.503Z,38.27
2019-02-18T21:20:17.313Z,37.57
2019-02-18T21:23:20.437Z,42.33
2019-02-18T21:26:23.513Z,42.70
2019-02-18T21:29:26.311Z,42.10
2019-02-18T21:32:29.036Z,44.53
2019-02-18T21:35:32.821Z,41.03
2019-02-18T21:38:35.709Z,43.53
2019-02-18T21:41:38.608Z,40.00
2019-02-18T21:44:41.387Z,43.00
2019-02-18T21:47:44.234Z,41.60
2019-02-18T21:50:47.876Z,41.00
2019-02-18T21:53:50.553Z,46.33
2019-02-18T21:56:53.184Z,44.93
2019-02-18T21:59:55.903Z,40.60
2019-02-18T22:02:58.790Z,44.67
2019-02-18T22:06:01.517Z,39.93
2019-02-18T22:09:05.815Z,44.23
2019-02-18T22:12:09.660Z,42.80
2019-02-18T22:15:13.307Z,44.43
2019-02-18T22:18:16.046Z,42.50
2019-02-18T22:21:18.904Z,41.70
2019-02-18T22:24:21.609Z,44.50
2019-02-18T22:27:25.632Z,40.90
2019-02-18T22:30:28.403Z,42.50
2019-02-18T22:33:31.800Z,46.40
2019-02-18T22:36:34.620Z,44.70
2019-02-18T22:39:37.471Z,47.17
2019-02-18T22:42:40.249Z,39.70
2019-02-18T22:45:43.023Z,38.10
2019-02-18T22:48:45.709Z,43.67
2019-02-18T22:51:48.519Z,42.93
2019-02-18T22:54:51.209Z,45.50
2019-02-18T22:57:54.020Z,42.07
2019-02-18T23:00:59.049Z,45.90
2019-02-18T23:04:01.831Z,43.77
2019-02-18T23:07:04.683Z,46.00
2019-02-18T23:10:07.446Z,43.83
2019-02-18T23:13:10.137Z,47.60
2019-02-18T23:16:13.366Z,47.97
2019-02-18T23:19:16.150Z,42.33
2019-02-18T23:22:18.859Z,47.90
2019-02-18T23:25:22.317Z,42.97
2019-02-18T23:28:25.100Z,46.63
2019-02-18T23:31:29.952Z,45.70
2019-02-18T23:34:32.792Z,46.50
2019-02-18T23:37:35.667Z,44.03
2019-02-18T23:40:38.437Z,36.90
2019-02-18T23:43:41.138Z,40.60
2019-02-18T23:46:43.915Z,39.77
2019-02-18T23:49:46.621Z,42.07
2019-02-18T23:52:49.398Z,38.10
2019-02-18T23:55:52.137Z,43.13
2019-02-18T23:58:54.835Z,41.13
